Time,TemperatureF,DewpointF,PressureIn,WindDirection,WindDirectionDegrees,WindSpeedMPH,WindSpeedGustMPH,Humidity,HourlyPrecipIn,Conditions,Clouds,dailyrainin,SoftwareType,DateUTC
2013-05-08 00:00:00,34.0,14.9,23.42,West,268,0.0,0.0,45,0.00,,---,0.04,VWS V14.00,2013-05-08 07:00:00,
2013-05-08 00:05:00,33.8,14.7,23.42,West,277,0.0,0.0,45,0.00,,---,0.00,VWS V14.00,2013-05-08 07:05:00,
2013-05-08 00:10:00,33.8,15.2,23.42,West,281,0.0,0.0,46,0.00,,---,0.00,VWS V14.00,2013-05-08 07:10:00,
2013-05-08 00:15:00,33.8,15.2,23.42,West,281,0.0,0.0,46,0.00,,---,0.00,VWS V14.00,2013-05-08 07:15:00,
2013-05-08 00:20:00,33.6,15.1,23.42,West,281,0.0,0.0,46,0.00,,---,0.00,VWS V14.00,2013-05-08 07:20:00,
2013-05-08 00:25:00,33.6,15.6,23.42,WSW,243,0.0,0.0,47,0.00,,---,0.00,VWS V14.00,2013-05-08 07:25:00,
2013-05-08 00:30:00,33.6,15.6,23.42,WSW,252,0.0,0.0,47,0.00,,---,0.00,VWS V14.00,2013-05-08 07:30:00,
2013-05-08 00:35:00,33.6,15.6,23.42,West,263,0.0,2.7,47,0.00,,---,0.00,VWS V14.00,2013-05-08 07:35:00,
2013-05-08 00:40:00,33.6,15.6,23.42,WNW,284,2.7,2.7,47,0.00,,---,0.00,VWS V14.00,2013-05-08 07:40:00,
2013-05-08 00:45:00,33.6,15.6,23.42,West,276,0.0,2.7,47,0.00,,---,0.00,VWS V14.00,2013-05-08 07:45:00,
2013-05-08 00:50:00,33.6,16.0,23.42,West,271,0.0,2.7,48,0.00,,---,0.00,VWS V14.00,2013-05-08 07:50:00,
2013-05-08 00:55:00,33.6,16.0,23.42,West,271,0.0,0.0,48,0.00,,---,0.00,VWS V14.00,2013-05-08 07:55:00,
2013-05-08 01:00:00,33.4,15.4,23.42,West,271,0.0,0.0,47,0.00,,---,0.00,VWS V14.00,2013-05-08 08:00:00,
2013-05-08 01:05:00,33.3,15.2,23.42,West,271,0.0,0.0,47,0.00,,---,0.00,VWS V14.00,2013-05-08 08:05:00,
2013-05-08 01:10:00,33.3,15.2,23.42,West,271,0.0,0.0,47,0.00,,---,0.00,VWS V14.00,2013-05-08 08:10:00,
2013-05-08 01:15:00,33.1,15.1,23.42,West,271,0.0,0.0,47,0.00,,---,0.00,VWS V14.00,2013-05-08 08:15:00,
2013-05-08 01:20:00,33.1,15.1,23.42,West,271,0.0,0.0,47,0.00,,---,0.00,VWS V14.00,2013-05-08 08:20:00,
2013-05-08 01:25:00,32.9,14.9,23.42,West,271,0.0,0.0,47,0.00,,---,0.00,VWS V14.00,2013-05-08 08:25:00,
2013-05-08 01:30:00,32.7,14.7,23.42,West,271,0.0,0.0,47,0.00,,---,0.00,VWS V14.00,2013-05-08 08:30:00,
2013-05-08 01:35:00,32.7,14.7,23.42,West,271,0.0,0.0,47,0.00,,---,0.00,VWS V14.00,2013-05-08 08:35:00,
2013-05-08 01:40:00,32.7,14.7,23.42,West,271,0.0,0.0,47,0.00,,---,0.00,VWS V14.00,2013-05-08 08:40:00,
2013-05-08 01:45:00,32.7,15.2,23.42,West,271,0.0,0.0,48,0.00,,---,0.00,VWS V14.00,2013-05-08 08:45:00,
2013-05-08 01:50:00,32.7,15.2,23.42,West,271,0.0,0.0,48,0.00,,---,0.00,VWS V14.00,2013-05-08 08:50:00,
2013-05-08 01:56:00,32.7,15.2,23.42,West,271,0.0,0.0,48,0.00,,---,0.00,VWS V14.00,2013-05-08 08:56:00,
2013-05-08 02:01:00,32.5,15.0,23.42,West,271,0.0,0.0,48,0.00,,---,0.00,VWS V14.00,2013-05-08 09:01:00,
2013-05-08 02:06:00,32.2,14.2,23.42,West,271,0.0,0.0,47,0.00,,---,0.00,VWS V14.00,2013-05-08 09:06:00,
2013-05-08 02:11:00,32.0,14.1,23.42,West,271,0.0,0.0,47,0.00,,---,0.00,VWS V14.00,2013-05-08 09:11:00,
2013-05-08 02:16:00,31.8,13.9,23.42,West,271,0.0,0.0,47,0.00,,---,0.00,VWS V14.00,2013-05-08 09:16:00,
2013-05-08 02:21:00,31.6,13.7,23.42,West,272,0.0,0.0,47,0.00,,---,0.00,VWS V14.00,2013-05-08 09:21:00,
2013-05-08 02:26:00,31.5,13.6,23.42,West,272,0.0,0.0,47,0.00,,---,0.00,VWS V14.00,2013-05-08 09:26:00,
2013-05-08 02:31:00,31.3,13.4,23.42,West,272,0.0,0.0,47,0.00,,---,0.00,VWS V14.00,2013-05-08 09:31:00,
2013-05-08 02:36:00,31.1,13.2,23.42,West,271,0.0,0.0,47,0.00,,---,0.00,VWS V14.00,2013-05-08 09:36:00,
2013-05-08 02:41:00,31.1,13.2,23.42,West,271,0.0,0.0,47,0.00,,---,0.00,VWS V14.00,2013-05-08 09:41:00,
2013-05-08 02:46:00,30.9,13.1,23.42,West,271,0.0,0.0,47,0.00,,---,0.00,VWS V14.00,2013-05-08 09:46:00,
2013-05-08 02:51:00,30.9,13.1,23.42,West,271,0.0,0.0,47,0.00,,---,0.00,VWS V14.00,2013-05-08 09:51:00,
2013-05-08 02:56:00,30.9,13.6,23.42,West,271,0.0,0.0,48,0.00,,---,0.00,VWS V14.00,2013-05-08 09:56:00,
2013-05-08 03:01:00,30.9,13.6,23.42,West,271,0.0,0.0,48,0.00,,---,0.00,VWS V14.00,2013-05-08 10:01:00,
2013-05-08 03:06:00,30.9,13.6,23.42,West,271,0.0,0.0,48,0.00,,---,0.00,VWS V14.00,2013-05-08 10:06:00,
2013-05-08 03:11:00,30.7,13.4,23.42,West,271,0.0,0.0,48,0.00,,---,0.00,VWS V14.00,2013-05-08 10:11:00,
2013-05-08 03:16:00,30.6,13.2,23.42,West,271,0.0,0.0,48,0.00,,---,0.00,VWS V14.00,2013-05-08 10:16:00,
2013-05-08 03:21:00,30.6,13.2,23.42,West,271,0.0,0.0,48,0.00,,---,0.00,VWS V14.00,2013-05-08 10:21:00,
2013-05-08 03:26:00,30.4,13.1,23.42,West,271,0.0,0.0,48,0.00,,---,0.00,VWS V14.00,2013-05-08 10:26:00,
2013-05-08 03:31:00,30.4,13.1,23.42,West,271,0.0,0.0,48,0.00,,---,0.00,VWS V14.00,2013-05-08 10:31:00,
2013-05-08 03:36:00,30.4,13.1,23.42,West,271,0.0,0.0,48,0.00,,---,0.00,VWS V14.00,2013-05-08 10:36:00,
2013-05-08 03:41:00,30.2,12.9,23.42,West,271,0.0,0.0,48,0.00,,---,0.00,VWS V14.00,2013-05-08 10:41:00,
2013-05-08 03:46:00,30.2,12.9,23.45,West,271,0.0,0.0,48,0.00,,---,0.00,VWS V14.00,2013-05-08 10:46:00,
2013-05-08 03:51:00,30.2,12.9,23.45,West,271,0.0,0.0,48,0.00,,---,0.00,VWS V14.00,2013-05-08 10:51:00,
2013-05-08 03:56:00,30.2,12.9,23.45,West,271,0.0,0.0,48,0.00,,---,0.00,VWS V14.00,2013-05-08 10:56:00,
2013-05-08 04:01:00,30.0,12.7,23.45,West,271,0.0,0.0,48,0.00,,---,0.00,VWS V14.00,2013-05-08 11:01:00,
2013-05-08 04:06:00,30.0,12.7,23.45,West,271,0.0,0.0,48,0.00,,---,0.00,VWS V14.00,2013-05-08 11:06:00,
2013-05-08 04:12:00,30.0,12.7,23.45,West,271,0.0,0.0,48,0.00,,---,0.00,VWS V14.00,2013-05-08 11:12:00,
2013-05-08 04:17:00,30.0,13.2,23.45,West,271,0.0,0.0,49,0.00,,---,0.00,VWS V14.00,2013-05-08 11:17:00,
2013-05-08 04:22:00,29.8,12.6,23.45,West,271,0.0,0.0,48,0.00,,---,0.00,VWS V14.00,2013-05-08 11:22:00,
2013-05-08 04:27:00,29.8,12.6,23.45,West,271,0.0,0.0,48,0.00,,---,0.00,VWS V14.00,2013-05-08 11:27:00,
2013-05-08 04:32:00,29.7,12.4,23.42,West,271,0.0,0.0,48,0.00,,---,0.00,VWS V14.00,2013-05-08 11:32:00,
2013-05-08 04:37:00,29.5,12.2,23.42,West,271,0.0,0.0,48,0.00,,---,0.00,VWS V14.00,2013-05-08 11:37:00,
2013-05-08 04:42:00,29.5,12.2,23.42,West,271,0.0,0.0,48,0.00,,---,0.00,VWS V14.00,2013-05-08 11:42:00,
2013-05-08 04:47:00,29.5,12.2,23.42,West,271,0.0,0.0,48,0.00,,---,0.00,VWS V14.00,2013-05-08 11:47:00,
2013-05-08 04:52:00,29.3,12.1,23.42,West,271,0.0,0.0,48,0.00,,---,0.00,VWS V14.00,2013-05-08 11:52:00,
2013-05-08 04:57:00,29.1,11.9,23.42,West,271,0.0,0.0,48,0.00,,---,0.00,VWS V14.00,2013-05-08 11:57:00,
2013-05-08 05:02:00,29.1,11.9,23.45,West,271,0.0,0.0,48,0.00,,---,0.00,VWS V14.00,2013-05-08 12:02:00,
2013-05-08 05:07:00,28.9,11.7,23.45,West,271,0.0,0.0,48,0.00,,---,0.00,VWS V14.00,2013-05-08 12:07:00,
2013-05-08 05:12:00,28.9,11.7,23.45,West,271,0.0,0.0,48,0.00,,---,0.00,VWS V14.00,2013-05-08 12:12:00,
2013-05-08 05:17:00,28.9,12.2,23.45,West,271,0.0,0.0,49,0.00,,---,0.00,VWS V14.00,2013-05-08 12:17:00,
2013-05-08 05:22:00,28.8,11.6,23.45,West,271,0.0,0.0,48,0.00,,---,0.00,VWS V14.00,2013-05-08 12:22:00,
2013-05-08 05:27:00,28.8,11.6,23.45,West,271,0.0,0.0,48,0.00,,---,0.00,VWS V14.00,2013-05-08 12:27:00,
2013-05-08 05:32:00,28.8,12.0,23.45,West,271,0.0,0.0,49,0.00,,---,0.00,VWS V14.00,2013-05-08 12:32:00,
2013-05-08 05:37:00,28.9,12.2,23.45,West,271,0.0,0.0,49,0.00,,---,0.00,VWS V14.00,2013-05-08 12:37:00,
2013-05-08 05:42:00,28.9,12.2,23.45,West,271,0.0,0.0,49,0.00,,---,0.00,VWS V14.00,2013-05-08 12:42:00,
2013-05-08 05:47:00,28.8,12.0,23.45,West,271,0.0,0.0,49,0.00,,---,0.00,VWS V14.00,2013-05-08 12:47:00,
2013-05-08 05:52:00,28.6,11.9,23.45,West,271,0.0,0.0,49,0.00,,---,0.00,VWS V14.00,2013-05-08 12:52:00,
2013-05-08 05:57:00,28.6,11.9,23.45,West,271,0.0,0.0,49,0.00,,---,0.00,VWS V14.00,2013-05-08 12:57:00,
2013-05-08 06:02:00,28.8,12.0,23.45,West,271,0.0,0.0,49,0.00,,---,0.00,VWS V14.00,2013-05-08 13:02:00,
2013-05-08 06:07:00,28.9,12.2,23.45,West,271,0.0,0.0,49,0.00,,---,0.00,VWS V14.00,2013-05-08 13:07:00,
2013-05-08 06:12:00,29.1,12.8,23.45,West,271,0.0,0.0,50,0.00,,---,0.00,VWS V14.00,2013-05-08 13:12:00,
2013-05-08 06:17:00,29.3,13.0,23.45,West,271,0.0,0.0,50,0.00,,---,0.00,VWS V14.00,2013-05-08 13:17:00,
2013-05-08 06:22:00,29.3,13.0,23.45,West,271,0.0,0.0,50,0.00,,---,0.00,VWS V14.00,2013-05-08 13:22:00,
2013-05-08 06:27:00,29.5,13.1,23.45,West,271,0.0,0.0,50,0.00,,---,0.00,VWS V14.00,2013-05-08 13:27:00,
2013-05-08 06:33:00,29.8,13.5,23.45,West,271,0.0,0.0,50,0.00,,---,0.00,VWS V14.00,2013-05-08 13:33:00,
2013-05-08 06:38:00,30.2,14.3,23.45,West,271,0.0,0.0,51,0.00,,---,0.00,VWS V14.00,2013-05-08 13:38:00,
2013-05-08 06:43:00,30.6,14.1,23.45,West,271,0.0,0.0,50,0.00,,---,0.00,VWS V14.00,2013-05-08 13:43:00,
2013-05-08 06:48:00,31.1,15.1,23.45,West,271,0.0,0.0,51,0.00,,---,0.00,VWS V14.00,2013-05-08 13:48:00,
2013-05-08 06:53:00,31.5,15.4,23.45,West,271,0.0,0.0,51,0.00,,---,0.00,VWS V14.00,2013-05-08 13:53:00,
2013-05-08 06:58:00,32.0,15.9,23.45,West,271,0.0,0.0,51,0.00,,---,0.00,VWS V14.00,2013-05-08 13:58:00,
2013-05-08 07:03:00,32.4,16.3,23.45,West,271,0.0,0.0,51,0.00,,---,0.00,VWS V14.00,2013-05-08 14:03:00,
2013-05-08 07:08:00,32.9,16.8,23.45,West,272,0.0,0.0,51,0.00,,---,0.00,VWS V14.00,2013-05-08 14:08:00,
2013-05-08 07:13:00,33.6,17.9,23.45,West,272,0.0,0.0,52,0.00,,---,0.00,VWS V14.00,2013-05-08 14:13:00,
2013-05-08 07:18:00,34.3,18.5,23.48,West,272,0.0,0.0,52,0.00,,---,0.00,VWS V14.00,2013-05-08 14:18:00,
2013-05-08 07:23:00,34.9,19.1,23.48,West,272,0.0,0.0,52,0.00,,---,0.00,VWS V14.00,2013-05-08 14:23:00,
2013-05-08 07:28:00,35.4,19.6,23.48,West,272,0.0,0.0,52,0.00,,---,0.00,VWS V14.00,2013-05-08 14:28:00,
2013-05-08 07:33:00,36.1,20.2,23.48,West,272,0.0,0.0,52,0.00,,---,0.00,VWS V14.00,2013-05-08 14:33:00,
2013-05-08 07:38:00,36.7,20.7,23.48,SW,236,0.0,0.0,52,0.00,,---,0.00,VWS V14.00,2013-05-08 14:38:00,
2013-05-08 07:43:00,37.4,21.4,23.48,SW,236,0.0,0.0,52,0.00,,---,0.00,VWS V14.00,2013-05-08 14:43:00,
2013-05-08 07:48:00,37.9,21.9,23.48,WSW,240,0.0,0.0,52,0.00,,---,0.00,VWS V14.00,2013-05-08 14:48:00,
2013-05-08 07:53:00,38.5,22.4,23.48,SSW,200,0.0,0.0,52,0.00,,---,0.00,VWS V14.00,2013-05-08 14:53:00,
2013-05-08 07:58:00,39.2,23.1,23.48,SSE,152,0.0,3.6,52,0.00,,---,0.00,VWS V14.00,2013-05-08 14:58:00,
2013-05-08 08:03:00,40.1,23.9,23.48,SSE,153,0.0,0.0,52,0.00,,---,0.00,VWS V14.00,2013-05-08 15:03:00,
2013-05-08 08:08:00,40.6,24.4,23.48,SSW,205,0.0,0.0,52,0.00,,---,0.00,VWS V14.00,2013-05-08 15:08:00,
2013-05-08 08:13:00,41.0,23.8,23.48,South,181,0.0,0.0,50,0.00,,---,0.00,VWS V14.00,2013-05-08 15:13:00,
2013-05-08 08:19:00,41.5,23.3,23.48,West,274,0.0,3.1,48,0.00,,---,0.00,VWS V14.00,2013-05-08 15:19:00,
2013-05-08 08:24:00,41.5,19.6,23.48,NW,311,6.7,6.7,41,0.00,,---,0.00,VWS V14.00,2013-05-08 15:24:00,
2013-05-08 08:29:00,41.9,19.4,23.48,SW,221,3.1,3.1,40,0.00,,---,0.00,VWS V14.00,2013-05-08 15:29:00,
2013-05-08 08:34:00,42.4,19.2,23.48,WNW,290,5.4,5.4,39,0.00,,---,0.00,VWS V14.00,2013-05-08 15:34:00,
2013-05-08 08:39:00,42.8,19.0,23.48,NNW,338,3.6,8.7,38,0.00,,---,0.00,VWS V14.00,2013-05-08 15:39:00,
2013-05-08 08:44:00,43.2,19.3,23.48,WNW,294,2.7,2.7,38,0.00,,---,0.00,VWS V14.00,2013-05-08 15:44:00,
2013-05-08 08:49:00,43.7,19.8,23.48,NW,313,0.0,0.0,38,0.00,,---,0.00,VWS V14.00,2013-05-08 15:49:00,
2013-05-08 08:54:00,44.1,20.1,23.48,West,279,4.0,4.0,38,0.00,,---,0.00,VWS V14.00,2013-05-08 15:54:00,
2013-05-08 08:59:00,44.6,20.6,23.48,West,269,2.7,3.1,38,0.00,,---,0.00,VWS V14.00,2013-05-08 15:59:00,
2013-05-08 09:04:00,44.6,20.6,23.48,NW,310,3.6,3.6,38,0.00,,---,0.00,VWS V14.00,2013-05-08 16:04:00,
2013-05-08 09:09:00,44.8,20.7,23.48,NNW,345,0.0,2.7,38,0.00,,---,0.00,VWS V14.00,2013-05-08 16:09:00,
2013-05-08 09:14:00,45.3,21.2,23.48,NW,314,5.4,5.4,38,0.00,,---,0.00,VWS V14.00,2013-05-08 16:14:00,
2013-05-08 09:19:00,45.5,21.4,23.48,West,272,3.6,7.2,38,0.00,,---,0.00,VWS V14.00,2013-05-08 16:19:00,
2013-05-08 09:24:00,45.5,21.4,23.48,SW,234,3.6,5.8,38,0.00,,---,0.00,VWS V14.00,2013-05-08 16:24:00,
2013-05-08 09:29:00,45.9,21.7,23.48,WSW,254,8.1,8.1,38,0.00,,---,0.00,VWS V14.00,2013-05-08 16:29:00,
2013-05-08 09:34:00,46.6,21.7,23.48,SW,226,2.7,3.1,37,0.00,,---,0.00,VWS V14.00,2013-05-08 16:34:00,
2013-05-08 09:39:00,46.9,22.0,23.48,WNW,284,3.6,3.6,37,0.00,,---,0.00,VWS V14.00,2013-05-08 16:39:00,
2013-05-08 09:44:00,47.3,22.4,23.48,SW,226,5.8,5.8,37,0.00,,---,0.00,VWS V14.00,2013-05-08 16:44:00,
2013-05-08 09:49:00,47.8,22.9,23.48,West,259,4.0,4.0,37,0.00,,---,0.00,VWS V14.00,2013-05-08 16:49:00,
2013-05-08 09:54:00,48.2,23.2,23.48,West,270,0.0,4.0,37,0.00,,---,0.00,VWS V14.00,2013-05-08 16:54:00,
2013-05-08 09:59:00,48.2,23.2,23.48,WSW,247,5.8,5.8,37,0.00,,---,0.00,VWS V14.00,2013-05-08 16:59:00,
2013-05-08 10:04:00,48.4,23.3,23.48,NNW,330,5.8,5.8,37,0.00,,---,0.00,VWS V14.00,2013-05-08 17:04:00,
2013-05-08 10:09:00,48.9,23.8,23.48,WNW,286,7.6,7.6,37,0.00,,---,0.00,VWS V14.00,2013-05-08 17:09:00,
2013-05-08 10:14:00,48.9,23.8,23.48,North,3,4.0,8.3,37,0.00,,---,0.00,VWS V14.00,2013-05-08 17:14:00,
2013-05-08 10:19:00,49.8,24.6,23.48,SW,214,0.0,2.7,37,0.00,,---,0.00,VWS V14.00,2013-05-08 17:19:00,
2013-05-08 10:24:00,50.5,25.2,23.48,NW,322,2.7,4.0,37,0.00,,---,0.00,VWS V14.00,2013-05-08 17:24:00,
2013-05-08 10:30:00,50.9,25.6,23.48,SSW,199,2.7,3.1,37,0.00,,---,0.00,VWS V14.00,2013-05-08 17:30:00,
2013-05-08 10:35:00,51.8,25.7,23.48,SSW,195,0.0,2.7,36,0.00,,---,0.00,VWS V14.00,2013-05-08 17:35:00,
2013-05-08 10:40:00,52.7,26.5,23.48,NNE,20,5.4,5.8,36,0.00,,---,0.00,VWS V14.00,2013-05-08 17:40:00,
2013-05-08 10:45:00,53.1,26.8,23.48,WNW,298,3.6,7.6,36,0.00,,---,0.00,VWS V14.00,2013-05-08 17:45:00,
2013-05-08 10:50:00,52.7,26.5,23.48,WSW,240,2.7,4.0,36,0.00,,---,0.00,VWS V14.00,2013-05-08 17:50:00,
2013-05-08 10:55:00,52.2,26.0,23.48,NNE,18,5.4,5.4,36,0.00,,---,0.00,VWS V14.00,2013-05-08 17:55:00,
2013-05-08 11:00:00,51.8,25.7,23.48,NW,312,8.1,8.1,36,0.00,,---,0.00,VWS V14.00,2013-05-08 18:00:00,
2013-05-08 11:05:00,51.8,25.7,23.48,NW,311,4.0,4.0,36,0.00,,---,0.00,VWS V14.00,2013-05-08 18:05:00,
2013-05-08 11:10:00,52.2,26.0,23.48,NNW,338,5.4,5.4,36,0.00,,---,0.00,VWS V14.00,2013-05-08 18:10:00,
2013-05-08 11:15:00,52.2,26.0,23.48,NNW,340,3.1,4.0,36,0.00,,---,0.00,VWS V14.00,2013-05-08 18:15:00,
2013-05-08 11:20:00,52.2,26.0,23.48,North,349,4.0,5.4,36,0.00,,---,0.00,VWS V14.00,2013-05-08 18:20:00,
2013-05-08 11:25:00,52.5,26.4,23.48,NNE,12,4.9,7.6,36,0.00,,---,0.00,VWS V14.00,2013-05-08 18:25:00,
2013-05-08 11:30:00,53.8,27.5,23.48,WSW,244,2.7,3.6,36,0.00,,---,0.00,VWS V14.00,2013-05-08 18:30:00,
2013-05-08 11:35:00,54.0,27.6,23.48,West,278,2.7,3.6,36,0.00,,---,0.00,VWS V14.00,2013-05-08 18:35:00,
2013-05-08 11:40:00,54.1,27.8,23.48,West,259,3.1,3.1,36,0.00,,---,0.00,VWS V14.00,2013-05-08 18:40:00,
2013-05-08 11:45:00,54.3,28.0,23.48,SSE,152,2.7,3.1,36,0.00,,---,0.00,VWS V14.00,2013-05-08 18:45:00,
2013-05-08 11:50:00,54.9,28.4,23.48,NW,317,4.9,4.9,36,0.00,,---,0.00,VWS V14.00,2013-05-08 18:50:00,
2013-05-08 11:55:00,54.1,27.8,23.48,WSW,245,4.0,4.0,36,0.00,,---,0.00,VWS V14.00,2013-05-08 18:55:00,
2013-05-08 12:00:00,53.8,27.5,23.48,SSE,165,2.7,2.7,36,0.00,,---,0.00,VWS V14.00,2013-05-08 19:00:00,
2013-05-08 12:05:00,54.0,27.6,23.48,SW,224,4.9,4.9,36,0.00,,---,0.00,VWS V14.00,2013-05-08 19:05:00,
2013-05-08 12:10:00,53.8,27.5,23.48,NW,308,7.2,7.2,36,0.00,,---,0.00,VWS V14.00,2013-05-08 19:10:00,
2013-05-08 12:15:00,54.0,27.6,23.48,SSE,163,2.7,2.7,36,0.00,,---,0.00,VWS V14.00,2013-05-08 19:15:00,
2013-05-08 12:20:00,54.5,28.1,23.48,SW,233,4.0,6.7,36,0.00,,---,0.00,VWS V14.00,2013-05-08 19:20:00,
2013-05-08 12:25:00,54.9,28.4,23.48,WNW,283,5.8,5.8,36,0.00,,---,0.00,VWS V14.00,2013-05-08 19:25:00,
2013-05-08 12:30:00,55.2,28.8,23.48,WSW,249,2.7,4.0,36,0.00,,---,0.00,VWS V14.00,2013-05-08 19:30:00,
2013-05-08 12:35:00,55.0,28.6,23.48,NW,311,2.7,3.6,36,0.00,,---,0.00,VWS V14.00,2013-05-08 19:35:00,
2013-05-08 12:40:00,55.0,28.6,23.48,WSW,248,2.7,3.1,36,0.00,,---,0.00,VWS V14.00,2013-05-08 19:40:00,
2013-05-08 12:46:00,55.2,28.8,23.48,WNW,285,3.1,5.4,36,0.00,,---,0.00,VWS V14.00,2013-05-08 19:46:00,
2013-05-08 12:51:00,55.2,28.8,23.48,SSW,195,2.7,3.6,36,0.00,,---,0.00,VWS V14.00,2013-05-08 19:51:00,
2013-05-08 12:56:00,54.9,28.4,23.48,NNW,335,3.6,5.8,36,0.00,,---,0.00,VWS V14.00,2013-05-08 19:56:00,
2013-05-08 13:01:00,54.9,28.4,23.48,NW,314,5.8,5.8,36,0.00,,---,0.00,VWS V14.00,2013-05-08 20:01:00,
2013-05-08 13:06:00,54.5,28.1,23.48,WSW,245,4.0,4.0,36,0.00,,---,0.00,VWS V14.00,2013-05-08 20:06:00,
2013-05-08 13:11:00,54.0,27.6,23.48,NNE,12,2.7,3.6,36,0.00,,---,0.00,VWS V14.00,2013-05-08 20:11:00,
2013-05-08 13:16:00,53.8,27.5,23.48,WNW,299,3.1,5.8,36,0.00,,---,0.00,VWS V14.00,2013-05-08 20:16:00,
2013-05-08 13:21:00,53.8,27.5,23.48,West,268,4.0,4.9,36,0.00,,---,0.00,VWS V14.00,2013-05-08 20:21:00,
2013-05-08 13:26:00,54.1,27.8,23.48,NNW,346,6.3,6.3,36,0.00,,---,0.00,VWS V14.00,2013-05-08 20:26:00,
2013-05-08 13:31:00,54.7,28.3,23.48,SW,231,0.0,0.0,36,0.00,,---,0.00,VWS V14.00,2013-05-08 20:31:00,
2013-05-08 13:36:00,55.4,28.2,23.48,WSW,238,3.1,3.1,35,0.00,,---,0.00,VWS V14.00,2013-05-08 20:36:00,
2013-05-08 13:41:00,55.9,28.7,23.48,West,265,0.0,3.1,35,0.00,,---,0.00,VWS V14.00,2013-05-08 20:41:00,
2013-05-08 13:46:00,55.9,28.7,23.48,SSW,198,0.0,2.7,35,0.00,,---,0.00,VWS V14.00,2013-05-08 20:46:00,
2013-05-08 13:51:00,55.9,28.7,23.48,WSW,237,2.7,4.0,35,0.00,,---,0.00,VWS V14.00,2013-05-08 20:51:00,
2013-05-08 13:56:00,56.1,28.9,23.48,SW,230,4.9,7.6,35,0.00,,---,0.00,VWS V14.00,2013-05-08 20:56:00,
2013-05-08 14:01:00,56.8,29.5,23.48,West,270,3.6,4.9,35,0.00,,---,0.00,VWS V14.00,2013-05-08 21:01:00,
2013-05-08 14:06:00,57.0,29.7,23.48,SSW,206,5.4,5.4,35,0.00,,---,0.00,VWS V14.00,2013-05-08 21:06:00,
2013-05-08 14:11:00,57.2,29.8,23.48,SW,224,2.7,3.1,35,0.00,,---,0.00,VWS V14.00,2013-05-08 21:11:00,
2013-05-08 14:16:00,57.9,30.5,23.48,SSW,207,3.1,3.1,35,0.00,,---,0.00,VWS V14.00,2013-05-08 21:16:00,
2013-05-08 14:21:00,58.1,30.6,23.48,SSW,194,0.0,0.0,35,0.00,,---,0.00,VWS V14.00,2013-05-08 21:21:00,
2013-05-08 14:26:00,58.1,30.6,23.48,South,181,0.0,0.0,35,0.00,,---,0.00,VWS V14.00,2013-05-08 21:26:00,
2013-05-08 14:31:00,58.1,30.6,23.48,WSW,251,2.7,4.0,35,0.00,,---,0.00,VWS V14.00,2013-05-08 21:31:00,
2013-05-08 14:36:00,57.7,30.3,23.48,WSW,251,4.0,5.8,35,0.00,,---,0.00,VWS V14.00,2013-05-08 21:36:00,
2013-05-08 14:41:00,57.6,30.1,23.48,West,274,3.6,4.9,35,0.00,,---,0.00,VWS V14.00,2013-05-08 21:41:00,
2013-05-08 14:46:00,58.3,30.8,23.45,South,178,3.1,4.9,35,0.00,,---,0.00,VWS V14.00,2013-05-08 21:46:00,
2013-05-08 14:51:00,58.5,30.9,23.45,South,184,3.1,5.4,35,0.00,,---,0.00,VWS V14.00,2013-05-08 21:51:00,
2013-05-08 14:56:00,58.5,30.9,23.45,WSW,246,2.7,4.0,35,0.00,,---,0.00,VWS V14.00,2013-05-08 21:56:00,
2013-05-08 15:01:00,58.3,30.8,23.45,SSW,210,3.1,3.6,35,0.00,,---,0.00,VWS V14.00,2013-05-08 22:01:00,
2013-05-08 15:07:00,57.7,30.3,23.45,East,96,4.0,4.0,35,0.00,,---,0.00,VWS V14.00,2013-05-08 22:07:00,
2013-05-08 15:12:00,57.6,30.1,23.45,NW,307,7.6,8.1,35,0.00,,---,0.00,VWS V14.00,2013-05-08 22:12:00,
2013-05-08 15:17:00,58.1,30.6,23.45,West,270,2.7,5.8,35,0.00,,---,0.00,VWS V14.00,2013-05-08 22:17:00,
2013-05-08 15:22:00,58.8,31.2,23.45,WSW,241,0.0,3.1,35,0.00,,---,0.00,VWS V14.00,2013-05-08 22:22:00,
2013-05-08 15:27:00,59.5,31.9,23.45,WSW,253,4.9,4.9,35,0.00,,---,0.00,VWS V14.00,2013-05-08 22:27:00,
2013-05-08 15:32:00,60.4,32.7,23.45,West,266,2.2,2.2,35,0.00,,---,0.00,VWS V14.00,2013-05-08 22:32:00,
2013-05-08 15:37:00,61.2,32.6,23.45,WSW,237,3.6,3.6,34,0.00,,---,0.00,VWS V14.00,2013-05-08 22:37:00,
2013-05-08 15:42:00,61.5,32.9,23.45,WNW,302,4.9,4.9,34,0.00,,---,0.00,VWS V14.00,2013-05-08 22:42:00,
2013-05-08 15:47:00,61.0,32.4,23.45,WNW,285,3.1,5.4,34,0.00,,---,0.00,VWS V14.00,2013-05-08 22:47:00,
2013-05-08 15:52:00,60.4,32.7,23.45,North,353,8.1,8.1,35,0.00,,---,0.00,VWS V14.00,2013-05-08 22:52:00,
2013-05-08 15:57:00,60.8,32.3,23.45,West,259,6.3,6.3,34,0.00,,---,0.00,VWS V14.00,2013-05-08 22:57:00,
2013-05-08 16:02:00,60.6,32.8,23.45,WNW,294,2.7,4.9,35,0.00,,---,0.00,VWS V14.00,2013-05-08 23:02:00,
2013-05-08 16:07:00,61.0,32.4,23.45,SSE,168,3.6,3.6,34,0.00,,---,0.00,VWS V14.00,2013-05-08 23:07:00,
2013-05-08 16:12:00,61.0,32.4,23.45,SSW,208,3.6,3.6,34,0.00,,---,0.00,VWS V14.00,2013-05-08 23:12:00,
2013-05-08 16:17:00,60.6,32.8,23.45,WSW,243,2.7,4.0,35,0.00,,---,0.00,VWS V14.00,2013-05-08 23:17:00,
2013-05-08 16:22:00,60.4,32.7,23.45,NW,312,4.9,4.9,35,0.00,,---,0.00,VWS V14.00,2013-05-08 23:22:00,
2013-05-08 16:27:00,60.6,32.8,23.45,West,277,3.6,3.6,35,0.00,,---,0.00,VWS V14.00,2013-05-08 23:27:00,
2013-05-08 16:32:00,61.2,32.6,23.45,WSW,250,7.6,7.6,34,0.00,,---,0.00,VWS V14.00,2013-05-08 23:32:00,
2013-05-08 16:37:00,61.5,32.9,23.45,SSE,164,0.0,0.0,34,0.00,,---,0.00,VWS V14.00,2013-05-08 23:37:00,
2013-05-08 16:42:00,61.0,32.4,23.45,WNW,295,5.4,5.4,34,0.00,,---,0.00,VWS V14.00,2013-05-08 23:42:00,
2013-05-08 16:47:00,60.1,32.4,23.45,WNW,288,3.1,4.0,35,0.00,,---,0.00,VWS V14.00,2013-05-08 23:47:00,
2013-05-08 16:52:00,59.4,31.7,23.45,SSW,210,4.0,4.0,35,0.00,,---,0.00,VWS V14.00,2013-05-08 23:52:00,
2013-05-08 16:57:00,58.8,31.2,23.45,WNW,282,2.7,2.7,35,0.00,,---,0.00,VWS V14.00,2013-05-08 23:57:00,
2013-05-08 17:02:00,58.8,31.2,23.45,West,280,3.1,4.0,35,0.00,,---,0.00,VWS V14.00,2013-05-09 00:02:00,
2013-05-08 17:07:00,58.8,31.2,23.45,SSW,204,4.0,4.0,35,0.00,,---,0.00,VWS V14.00,2013-05-09 00:07:00,
2013-05-08 17:12:00,59.5,31.9,23.45,SW,227,2.2,3.6,35,0.00,,---,0.00,VWS V14.00,2013-05-09 00:12:00,
2013-05-08 17:18:00,60.3,32.5,23.45,South,169,3.6,4.0,35,0.00,,---,0.00,VWS V14.00,2013-05-09 00:18:00,
2013-05-08 17:23:00,60.6,32.8,23.45,South,173,0.0,3.1,35,0.00,,---,0.00,VWS V14.00,2013-05-09 00:23:00,
2013-05-08 17:28:00,60.4,32.7,23.45,South,182,4.9,5.4,35,0.00,,---,0.00,VWS V14.00,2013-05-09 00:28:00,
2013-05-08 17:33:00,60.3,32.5,23.45,NW,312,2.7,6.3,35,0.00,,---,0.00,VWS V14.00,2013-05-09 00:33:00,
2013-05-08 17:38:00,60.3,32.5,23.45,West,278,3.1,4.0,35,0.00,,---,0.00,VWS V14.00,2013-05-09 00:38:00,
2013-05-08 17:43:00,60.4,32.7,23.45,SSW,212,3.6,4.0,35,0.00,,---,0.00,VWS V14.00,2013-05-09 00:43:00,
2013-05-08 17:48:00,60.4,32.7,23.45,WSW,240,3.1,3.1,35,0.00,,---,0.00,VWS V14.00,2013-05-09 00:48:00,
2013-05-08 17:53:00,60.3,32.5,23.45,SW,234,3.6,3.6,35,0.00,,---,0.00,VWS V14.00,2013-05-09 00:53:00,
2013-05-08 17:58:00,59.9,32.2,23.45,SSW,203,3.6,4.9,35,0.00,,---,0.00,VWS V14.00,2013-05-09 00:58:00,
2013-05-08 18:03:00,59.0,31.4,23.45,SSW,207,3.1,4.9,35,0.00,,---,0.00,VWS V14.00,2013-05-09 01:03:00,
2013-05-08 18:08:00,58.3,30.8,23.45,South,191,5.4,5.4,35,0.00,,---,0.00,VWS V14.00,2013-05-09 01:08:00,
2013-05-08 18:13:00,57.6,30.1,23.45,SSW,211,3.1,3.6,35,0.00,,---,0.00,VWS V14.00,2013-05-09 01:13:00,
2013-05-08 18:18:00,56.8,29.5,23.45,SE,137,2.7,3.6,35,0.00,,---,0.00,VWS V14.00,2013-05-09 01:18:00,
2013-05-08 18:23:00,56.1,28.9,23.45,SSW,204,3.1,3.1,35,0.00,,---,0.00,VWS V14.00,2013-05-09 01:23:00,
2013-05-08 18:28:00,55.4,28.2,23.45,WSW,253,2.2,2.7,35,0.00,,---,0.00,VWS V14.00,2013-05-09 01:28:00,
2013-05-08 18:33:00,55.0,28.6,23.45,SSW,192,2.2,2.2,36,0.00,,---,0.00,VWS V14.00,2013-05-09 01:33:00,
2013-05-08 18:38:00,54.7,28.3,23.45,SSW,198,2.7,3.6,36,0.00,,---,0.00,VWS V14.00,2013-05-09 01:38:00,
2013-05-08 18:43:00,54.3,28.0,23.45,SSW,198,0.0,0.0,36,0.00,,---,0.00,VWS V14.00,2013-05-09 01:43:00,
2013-05-08 18:48:00,53.8,27.5,23.45,SSW,198,0.0,0.0,36,0.00,,---,0.00,VWS V14.00,2013-05-09 01:48:00,
2013-05-08 18:53:00,53.4,27.1,23.45,SSW,198,0.0,0.0,36,0.00,,---,0.00,VWS V14.00,2013-05-09 01:53:00,
2013-05-08 18:58:00,53.1,26.8,23.45,SSW,198,0.0,0.0,36,0.00,,---,0.00,VWS V14.00,2013-05-09 01:58:00,
2013-05-08 19:03:00,52.5,26.4,23.45,SSW,198,0.0,0.0,36,0.00,,---,0.00,VWS V14.00,2013-05-09 02:03:00,
2013-05-08 19:08:00,52.2,26.0,23.45,WSW,250,0.0,0.0,36,0.00,,---,0.00,VWS V14.00,2013-05-09 02:08:00,
2013-05-08 19:13:00,51.8,25.7,23.45,WSW,242,0.0,0.0,36,0.00,,---,0.00,VWS V14.00,2013-05-09 02:13:00,
2013-05-08 19:18:00,51.4,26.0,23.45,WSW,242,0.0,0.0,37,0.00,,---,0.00,VWS V14.00,2013-05-09 02:18:00,
2013-05-08 19:24:00,51.1,25.7,23.45,West,273,0.0,0.0,37,0.00,,---,0.00,VWS V14.00,2013-05-09 02:24:00,
2013-05-08 19:29:00,50.9,25.6,23.48,WNW,285,0.0,0.0,37,0.00,,---,0.00,VWS V14.00,2013-05-09 02:29:00,
2013-05-08 19:34:00,50.5,25.2,23.48,West,279,0.0,0.0,37,0.00,,---,0.00,VWS V14.00,2013-05-09 02:34:00,
2013-05-08 19:39:00,50.4,25.1,23.48,West,279,0.0,0.0,37,0.00,,---,0.00,VWS V14.00,2013-05-09 02:39:00,
2013-05-08 19:44:00,50.0,24.8,23.48,West,279,0.0,0.0,37,0.00,,---,0.00,VWS V14.00,2013-05-09 02:44:00,
2013-05-08 19:49:00,49.8,24.6,23.48,West,279,0.0,0.0,37,0.00,,---,0.00,VWS V14.00,2013-05-09 02:49:00,
2013-05-08 19:54:00,49.5,24.3,23.48,West,279,0.0,0.0,37,0.00,,---,0.00,VWS V14.00,2013-05-09 02:54:00,
2013-05-08 19:59:00,49.5,24.3,23.48,West,279,0.0,0.0,37,0.00,,---,0.00,VWS V14.00,2013-05-09 02:59:00,
2013-05-08 20:04:00,49.3,24.1,23.48,West,279,0.0,0.0,37,0.00,,---,0.00,VWS V14.00,2013-05-09 03:04:00,
2013-05-08 20:09:00,49.1,24.0,23.48,West,279,0.0,0.0,37,0.00,,---,0.00,VWS V14.00,2013-05-09 03:09:00,
2013-05-08 20:14:00,48.9,23.8,23.48,West,279,0.0,0.0,37,0.00,,---,0.00,VWS V14.00,2013-05-09 03:14:00,
2013-05-08 20:19:00,48.7,23.6,23.48,West,279,0.0,0.0,37,0.00,,---,0.00,VWS V14.00,2013-05-09 03:19:00,
2013-05-08 20:24:00,48.4,23.3,23.48,West,279,0.0,0.0,37,0.00,,---,0.00,VWS V14.00,2013-05-09 03:24:00,
2013-05-08 20:29:00,48.2,23.2,23.48,West,279,0.0,0.0,37,0.00,,---,0.00,VWS V14.00,2013-05-09 03:29:00,
2013-05-08 20:34:00,48.0,23.0,23.48,West,280,0.0,0.0,37,0.00,,---,0.00,VWS V14.00,2013-05-09 03:34:00,
2013-05-08 20:39:00,47.8,22.9,23.48,West,280,0.0,0.0,37,0.00,,---,0.00,VWS V14.00,2013-05-09 03:39:00,
2013-05-08 20:44:00,47.5,22.5,23.48,West,280,0.0,0.0,37,0.00,,---,0.00,VWS V14.00,2013-05-09 03:44:00,
2013-05-08 20:49:00,47.3,22.4,23.48,NW,304,0.0,0.0,37,0.00,,---,0.00,VWS V14.00,2013-05-09 03:49:00,
2013-05-08 20:54:00,47.1,22.2,23.48,NW,304,0.0,0.0,37,0.00,,---,0.00,VWS V14.00,2013-05-09 03:54:00,
2013-05-08 20:59:00,46.9,22.0,23.48,NW,304,0.0,0.0,37,0.00,,---,0.00,VWS V14.00,2013-05-09 03:59:00,
2013-05-08 21:01:00,46.9,22.0,23.48,NW,304,0.0,0.0,37,0.00,,---,0.00,VWS V14.00,2013-05-09 04:01:00,
2013-05-08 21:02:00,46.9,22.0,23.48,NW,304,0.0,0.0,37,0.00,,---,0.00,VWS V14.00,2013-05-09 04:02:00,
2013-05-08 21:08:00,46.6,21.7,23.48,NW,304,0.0,0.0,37,0.00,,---,0.00,VWS V14.00,2013-05-09 04:08:00,
2013-05-08 21:13:00,46.4,21.6,23.48,NW,304,0.0,0.0,37,0.00,,---,0.00,VWS V14.00,2013-05-09 04:13:00,
2013-05-08 21:18:00,46.0,21.9,23.48,NW,304,0.0,0.0,38,0.00,,---,0.00,VWS V14.00,2013-05-09 04:18:00,
2013-05-08 21:23:00,45.7,21.5,23.48,NW,304,0.0,0.0,38,0.00,,---,0.00,VWS V14.00,2013-05-09 04:23:00,
2013-05-08 21:28:00,45.5,21.4,23.48,NW,304,0.0,0.0,38,0.00,,---,0.00,VWS V14.00,2013-05-09 04:28:00,
2013-05-08 21:33:00,45.3,21.2,23.48,NW,304,0.0,0.0,38,0.00,,---,0.00,VWS V14.00,2013-05-09 04:33:00,
2013-05-08 21:38:00,45.0,20.9,23.48,NW,304,0.0,0.0,38,0.00,,---,0.00,VWS V14.00,2013-05-09 04:38:00,
2013-05-08 21:43:00,44.8,20.7,23.48,NW,304,0.0,0.0,38,0.00,,---,0.00,VWS V14.00,2013-05-09 04:43:00,
2013-05-08 21:48:00,44.4,20.4,23.48,NW,304,0.0,0.0,38,0.00,,---,0.00,VWS V14.00,2013-05-09 04:48:00,
2013-05-08 21:53:00,44.2,20.3,23.48,NW,304,0.0,0.0,38,0.00,,---,0.00,VWS V14.00,2013-05-09 04:53:00,
2013-05-08 21:58:00,44.1,20.1,23.48,NW,304,0.0,0.0,38,0.00,,---,0.00,VWS V14.00,2013-05-09 04:58:00,
2013-05-08 22:03:00,43.7,19.8,23.48,NW,304,0.0,0.0,38,0.00,,---,0.00,VWS V14.00,2013-05-09 05:03:00,
2013-05-08 22:08:00,43.5,19.6,23.48,NW,304,0.0,0.0,38,0.00,,---,0.00,VWS V14.00,2013-05-09 05:08:00,
2013-05-08 22:13:00,43.3,19.5,23.48,NW,304,0.0,0.0,38,0.00,,---,0.00,VWS V14.00,2013-05-09 05:13:00,
2013-05-08 22:18:00,43.2,19.3,23.48,NW,304,0.0,0.0,38,0.00,,---,0.00,VWS V14.00,2013-05-09 05:18:00,
2013-05-08 22:23:00,43.0,19.1,23.48,NW,304,0.0,0.0,38,0.00,,---,0.00,VWS V14.00,2013-05-09 05:23:00,
2013-05-08 22:28:00,42.8,19.0,23.48,NW,304,0.0,0.0,38,0.00,,---,0.00,VWS V14.00,2013-05-09 05:28:00,
2013-05-08 22:33:00,42.8,19.0,23.48,NW,304,0.0,0.0,38,0.00,,---,0.00,VWS V14.00,2013-05-09 05:33:00,
2013-05-08 22:38:00,42.6,19.4,23.48,NW,304,0.0,0.0,39,0.00,,---,0.00,VWS V14.00,2013-05-09 05:38:00,
2013-05-08 22:43:00,42.4,19.2,23.48,NW,304,0.0,0.0,39,0.00,,---,0.00,VWS V14.00,2013-05-09 05:43:00,
2013-05-08 22:48:00,42.4,19.2,23.48,NW,306,0.0,0.0,39,0.00,,---,0.00,VWS V14.00,2013-05-09 05:48:00,
2013-05-08 22:53:00,42.4,19.2,23.48,NW,306,0.0,0.0,39,0.00,,---,0.00,VWS V14.00,2013-05-09 05:53:00,
2013-05-08 22:58:00,42.4,19.2,23.48,NW,306,0.0,0.0,39,0.00,,---,0.00,VWS V14.00,2013-05-09 05:58:00,
2013-05-08 23:03:00,42.3,19.1,23.48,NW,306,0.0,0.0,39,0.00,,---,0.00,VWS V14.00,2013-05-09 06:03:00,
2013-05-08 23:08:00,42.1,18.9,23.48,NW,306,0.0,0.0,39,0.00,,---,0.00,VWS V14.00,2013-05-09 06:08:00,
2013-05-08 23:13:00,41.7,18.6,23.48,NW,306,0.0,0.0,39,0.00,,---,0.00,VWS V14.00,2013-05-09 06:13:00,
2013-05-08 23:18:00,41.5,18.4,23.48,NW,306,0.0,0.0,39,0.00,,---,0.00,VWS V14.00,2013-05-09 06:18:00,
2013-05-08 23:23:00,41.4,18.3,23.48,NW,306,0.0,0.0,39,0.00,,---,0.00,VWS V14.00,2013-05-09 06:23:00,
2013-05-08 23:29:00,41.2,18.1,23.48,NW,306,0.0,0.0,39,0.00,,---,0.00,VWS V14.00,2013-05-09 06:29:00,
2013-05-08 23:34:00,41.2,18.1,23.48,NW,306,0.0,0.0,39,0.00,,---,0.00,VWS V14.00,2013-05-09 06:34:00,
2013-05-08 23:39:00,41.0,18.0,23.48,NW,306,0.0,0.0,39,0.00,,---,0.00,VWS V14.00,2013-05-09 06:39:00,
2013-05-08 23:44:00,40.8,17.8,23.48,NW,306,0.0,0.0,39,0.00,,---,0.00,VWS V14.00,2013-05-09 06:44:00,
2013-05-08 23:49:00,40.6,17.6,23.48,NW,306,0.0,0.0,39,0.00,,---,0.00,VWS V14.00,2013-05-09 06:49:00,
2013-05-08 23:54:00,40.5,17.5,23.48,NW,306,0.0,0.0,39,0.00,,---,0.00,VWS V14.00,2013-05-09 06:54:00,
2013-05-08 23:59:00,40.3,17.3,23.48,NW,306,0.0,0.0,39,0.00,,---,0.00,VWS V14.00,2013-05-09 06:59:00,